Loris, SC (29569)

6:57 AM EDT on April 21, 2015 (GMT -0400)
HWY 9 BUS. WEST. | | Change Station
CLOSE
Current Station
Personal Weather Station
Location: Loris, SC
Elevation: 99 ft
Nearby Weather Stations

Elev 99 ft 34.07 °N, 78.91 °W | Updated 5 seconds ago

Clear
Clear
61.2 °F
Feels Like 61.2 °F
N
0.0
Wind Variable Wind from SW
Gusts 0.0 mph

Today
High -- | Low -- °F
--% Chance of Precip.
Yesterday
High -- | Low -- °F
Precip. -- in
6:37 AM 7:51 PM
Waxing Crescent, 9% visible
Pressure 29.86 in
Visibility 7.0 miles
Clouds Clear
Dew Point 56 °F
Humidity 84%
Rainfall 0.00 in
Snow Depth Not available.
UV 0 out of 12
Pollen 9.00 out of 12
Air Quality Not available.
Flu Activity Local Activity
METAR KHYW 211035Z AUTO 23003KT 7SM CLR 16/16 A2986 RMK AO2

More Conditions Fewer Conditions

Pressure 29.86 in
Visibility 7.0 miles
Clouds Clear
Dew Point 56 °F
Humidity 84%
Rainfall 0.00 in
Snow Depth Not available.
UV 0 out of 12
Pollen 9.00 out of 12
Air Quality Not available.
Flu Activity Local Activity
METAR KHYW 211035Z AUTO 23003KT 7SM CLR 16/16 A2986 RMK AO2

More Conditions Fewer Conditions

10-Day Weather Forecast

Almanac

Astronomy

Apr. 21, 2015 Rise Set
Actual Time
Civil Twilight
Nautical Twilight
Astronomical Twilight
Moon
Length of Visible Light
Length of Day
Tomorrow will be .
, % of the Moon is Illuminated

Today's Extremes

State Highs State Lows

Community

WunderPhotos

Upload Photos

1,815,340 photos uploaded!

WunderBlogs® & News

Nearby

Air Quality

  Air Quality AQ Index Pollutant
Not available.

Snow Depth

Station Depth Elevation

Earthquake Activity

City Distance Mag. Time & Date
Minimum magnitude displayed is 2.5.

Coastal Water Temperatures

Place Temperature

Stations

Nearby Weather Stations

Station Location Temp. Windchill Dew Point Humidity Wind Precip. Elev Updated Type